Alta Floresta, Brazil
Current Conditions -  °F | °C
As of 11:00 AM on Tuesday 27 Jan 2015 (Local Time) from SBAT Reporting Station
Broken Clouds Broken Clouds  
Wind Chill: 88°   Ceiling: 10000
Heat Index: 98°   Visibility: 6mi
Dew Point: 75°   Wind: 8mph
Humidity: 66%   Direction: 120°ESE
Pressure: 29.97"   Gusts: NA
Location:  9.9°S, 55.91°W
Report Text: SBAT 271400Z 12007KT 9999 FEW015 BKN100 31/24 Q1015
Loading
Personal Weather Stations






























Interactive Weather Map New forecast layout! Learn more

10-Day Weather Forecast

Advertisements
Track Severe Weather on mobile